createdAt,value
2022-10-14T00:01:25.374Z,90.03
2022-10-14T00:04:27.181Z,90.34
2022-10-14T00:07:28.783Z,90.74
2022-10-14T00:10:30.355Z,90.24
2022-10-14T00:13:31.946Z,90.34
2022-10-14T00:16:36.428Z,90.68
2022-10-14T00:19:38.098Z,91.03
2022-10-14T00:22:39.709Z,90.72
2022-10-14T00:25:41.265Z,91.01
2022-10-14T00:28:43.001Z,90.56
2022-10-14T00:31:44.877Z,90.79
2022-10-14T00:34:46.491Z,90.96
2022-10-14T00:37:48.161Z,90.92
2022-10-14T00:40:49.997Z,90.74
2022-10-14T00:43:53.548Z,90.25
2022-10-14T00:46:55.727Z,88.79
2022-10-14T00:49:59.852Z,89.86
2022-10-14T00:53:04.298Z,90.38
2022-10-14T00:56:08.861Z,90.57
2022-10-14T00:59:11.896Z,90.58
2022-10-14T01:02:13.539Z,90.84
2022-10-14T01:05:18.899Z,91.17
2022-10-14T01:08:43.964Z,91.37
2022-10-14T01:11:45.726Z,91.26
2022-10-14T01:15:22.696Z,90.87
2022-10-14T01:18:53.483Z,91.04
2022-10-14T01:22:08.909Z,91.11
2022-10-14T01:25:33.179Z,91.18
2022-10-14T01:28:47.491Z,90.91
2022-10-14T01:32:00.218Z,91.23
2022-10-14T01:35:39.857Z,91.57
2022-10-14T01:38:51.898Z,91.52
2022-10-14T01:42:00.946Z,91.62
2022-10-14T01:45:15.825Z,91.19
2022-10-14T01:48:22.869Z,90.95
2022-10-14T01:51:46.035Z,90.72
2022-10-14T01:54:52.462Z,90.97
2022-10-14T01:57:57.004Z,91.12
2022-10-14T02:00:59.734Z,91.27
2022-10-14T02:04:01.439Z,91.75
2022-10-14T02:07:13.841Z,91.70
2022-10-14T02:10:46.776Z,91.47
2022-10-14T02:14:14.572Z,91.56
2022-10-14T02:17:33.116Z,91.51
2022-10-14T02:20:48.095Z,91.79
2022-10-14T02:23:58.028Z,91.29
2022-10-14T02:27:03.258Z,91.37
2022-10-14T02:30:07.706Z,91.84
2022-10-14T02:33:10.035Z,92.02
2022-10-14T02:36:14.835Z,92.19
2022-10-14T02:39:30.499Z,92.50
2022-10-14T02:42:32.469Z,92.34
2022-10-14T02:45:34.704Z,92.64
2022-10-14T02:48:36.541Z,91.82
2022-10-14T02:51:38.422Z,91.86
2022-10-14T02:54:40.046Z,91.73
2022-10-14T02:57:42.085Z,91.55
2022-10-14T03:00:43.728Z,91.56
2022-10-14T03:03:47.279Z,91.29
2022-10-14T03:06:49.351Z,90.84
2022-10-14T03:09:51.201Z,90.73
2022-10-14T03:12:52.888Z,90.59
2022-10-14T03:16:02.411Z,90.72
2022-10-14T03:19:04.242Z,90.39
2022-10-14T03:22:20.355Z,90.44
2022-10-14T03:25:24.137Z,90.87
2022-10-14T03:28:37.607Z,90.69
2022-10-14T03:31:50.731Z,91.20
2022-10-14T03:35:06.174Z,91.13
2022-10-14T03:38:08.073Z,91.15
2022-10-14T03:41:10.010Z,91.65
2022-10-14T03:44:11.892Z,91.67
2022-10-14T03:47:19.215Z,93.43
2022-10-14T03:50:21.687Z,93.60
2022-10-14T03:53:27.547Z,94.39
2022-10-14T03:56:29.751Z,94.21
2022-10-14T03:59:31.772Z,93.12
2022-10-14T04:02:33.450Z,92.16
2022-10-14T04:05:35.700Z,92.11
2022-10-14T04:08:44.568Z,91.50
2022-10-14T04:12:02.363Z,92.74
2022-10-14T04:15:25.105Z,93.54
2022-10-14T04:18:44.691Z,93.50
2022-10-14T04:21:48.897Z,92.72
2022-10-14T04:24:54.244Z,92.53
2022-10-14T04:27:56.019Z,92.69
2022-10-14T04:31:07.388Z,91.85
2022-10-14T04:34:20.919Z,92.25
2022-10-14T04:37:22.640Z,91.13
2022-10-14T04:40:37.223Z,91.64
2022-10-14T04:43:42.912Z,91.81
2022-10-14T04:47:07.397Z,90.55
2022-10-14T04:50:09.473Z,89.39
2022-10-14T04:53:13.885Z,88.91
2022-10-14T04:56:33.706Z,88.48
2022-10-14T04:59:37.481Z,88.06
2022-10-14T05:02:41.990Z,87.79
2022-10-14T05:05:44.179Z,87.68
2022-10-14T05:08:47.361Z,86.46
2022-10-14T05:11:49.138Z,86.91
2022-10-14T05:14:55.872Z,86.22
2022-10-14T05:18:04.580Z,86.36
2022-10-14T05:21:21.847Z,87.02
2022-10-14T05:24:30.795Z,86.44
2022-10-14T05:27:32.807Z,85.17
2022-10-14T05:30:37.367Z,85.43
2022-10-14T05:33:43.179Z,84.52
2022-10-14T05:36:45.443Z,85.43
2022-10-14T05:39:47.225Z,85.30
2022-10-14T05:42:53.249Z,83.56
2022-10-14T05:45:56.680Z,84.26
2022-10-14T05:49:05.929Z,82.92
2022-10-14T05:52:10.331Z,83.36
2022-10-14T05:55:12.116Z,83.74
2022-10-14T05:58:14.563Z,82.87
2022-10-14T06:01:19.928Z,82.70
2022-10-14T06:04:21.876Z,83.66
2022-10-14T06:07:23.619Z,83.28
2022-10-14T06:10:25.298Z,83.64
2022-10-14T06:13:27.024Z,82.81
2022-10-14T06:16:29.563Z,82.09
2022-10-14T06:19:32.276Z,82.40
2022-10-14T06:22:34.051Z,80.76
2022-10-14T06:25:36.478Z,79.62
2022-10-14T06:28:38.337Z,78.64
2022-10-14T06:31:40.176Z,78.51
2022-10-14T06:34:41.802Z,78.54
2022-10-14T06:37:45.624Z,79.08
2022-10-14T06:40:50.598Z,79.07
2022-10-14T06:43:52.379Z,79.38
2022-10-14T06:46:54.068Z,79.81
2022-10-14T06:49:55.739Z,78.45
2022-10-14T06:52:57.347Z,78.15
2022-10-14T06:56:00.893Z,77.99
2022-10-14T06:59:02.593Z,77.91
2022-10-14T07:02:04.375Z,77.60
2022-10-14T07:05:06.251Z,77.34
2022-10-14T07:08:09.124Z,77.71
2022-10-14T07:11:13.292Z,77.84
2022-10-14T07:14:14.915Z,78.04
2022-10-14T07:17:16.781Z,78.13
2022-10-14T07:20:18.465Z,77.75
2022-10-14T07:23:20.304Z,78.63
2022-10-14T07:26:22.173Z,78.10
2022-10-14T07:29:23.796Z,79.06
2022-10-14T07:32:25.540Z,79.61
2022-10-14T07:35:27.740Z,79.92
2022-10-14T07:38:29.972Z,80.43
2022-10-14T07:41:32.780Z,80.76
2022-10-14T07:44:34.403Z,80.95
2022-10-14T07:47:36.173Z,80.68
2022-10-14T07:50:37.881Z,81.20
2022-10-14T07:53:39.499Z,80.71
2022-10-14T07:56:43.305Z,81.13
2022-10-14T07:59:46.206Z,81.79
2022-10-14T08:02:47.838Z,82.57
2022-10-14T08:05:50.411Z,82.42
2022-10-14T08:08:52.276Z,82.48
2022-10-14T08:11:53.988Z,82.13
2022-10-14T08:14:57.228Z,82.79
2022-10-14T08:17:58.854Z,82.41
2022-10-14T08:21:00.496Z,83.08
2022-10-14T08:24:02.178Z,82.75
2022-10-14T08:27:05.603Z,82.96
2022-10-14T08:30:11.084Z,83.19
2022-10-14T08:33:13.209Z,83.89
2022-10-14T08:36:15.914Z,87.47
2022-10-14T08:39:23.602Z,86.23
2022-10-14T08:42:35.637Z,87.29
2022-10-14T08:45:42.649Z,89.79
2022-10-14T08:48:46.544Z,91.50
2022-10-14T08:51:55.087Z,91.62
2022-10-14T08:55:02.673Z,92.07
2022-10-14T08:58:21.759Z,93.19
2022-10-14T09:01:31.137Z,92.54
2022-10-14T09:04:36.079Z,92.58
2022-10-14T09:07:37.944Z,92.34
2022-10-14T09:10:42.209Z,92.86
2022-10-14T09:13:50.612Z,93.09
2022-10-14T09:16:57.774Z,92.64
2022-10-14T09:20:08.673Z,92.20
2022-10-14T09:23:17.012Z,91.63
2022-10-14T09:26:20.047Z,90.52
2022-10-14T09:29:34.971Z,89.64
2022-10-14T09:32:41.140Z,88.50
2022-10-14T09:35:43.687Z,87.94
2022-10-14T09:38:48.262Z,89.11
2022-10-14T09:41:53.633Z,87.66
2022-10-14T09:45:18.745Z,88.67
2022-10-14T09:48:28.874Z,86.83
2022-10-14T09:51:33.995Z,87.50
2022-10-14T09:54:35.779Z,87.40
2022-10-14T09:57:37.525Z,86.62
2022-10-14T10:00:39.389Z,86.54
2022-10-14T10:03:41.531Z,87.12
2022-10-14T10:06:54.729Z,86.80
2022-10-14T10:10:01.409Z,86.35
2022-10-14T10:13:03.326Z,85.44
2022-10-14T10:16:06.956Z,86.73
2022-10-14T10:19:23.762Z,84.72
2022-10-14T10:22:27.915Z,86.12
2022-10-14T10:25:29.684Z,84.26
2022-10-14T10:28:31.896Z,85.35
2022-10-14T10:31:47.776Z,84.34
2022-10-14T10:35:27.909Z,84.09
2022-10-14T10:38:35.385Z,84.25
2022-10-14T10:42:09.483Z,83.11
2022-10-14T10:45:39.956Z,82.25
2022-10-14T10:48:56.014Z,82.12
2022-10-14T10:52:17.480Z,81.03
2022-10-14T10:59:26.939Z,81.54
2022-10-14T11:02:40.900Z,80.93
2022-10-14T11:06:02.783Z,80.60
2022-10-14T11:09:29.335Z,80.56
2022-10-14T11:12:48.504Z,80.88
2022-10-14T11:16:31.898Z,81.39
2022-10-14T11:19:42.571Z,81.59
2022-10-14T11:22:58.731Z,81.86
2022-10-14T11:26:04.048Z,81.31
2022-10-14T11:29:50.841Z,80.81
2022-10-14T11:33:29.793Z,80.43
2022-10-14T11:36:57.526Z,80.88
2022-10-14T11:40:15.432Z,80.16
2022-10-14T11:43:35.395Z,81.12
2022-10-14T11:46:42.460Z,80.99
2022-10-14T11:49:55.841Z,80.71
2022-10-14T11:53:08.653Z,80.22
2022-10-14T11:56:43.856Z,80.27
2022-10-14T12:00:13.903Z,80.77
2022-10-14T12:03:31.848Z,80.34
2022-10-14T12:06:46.943Z,81.42
2022-10-14T12:09:57.394Z,80.76
2022-10-14T12:13:07.872Z,81.33
2022-10-14T12:16:14.367Z,81.28
2022-10-14T12:19:24.425Z,81.03
2022-10-14T12:22:31.858Z,82.02
2022-10-14T12:26:01.211Z,81.47
2022-10-14T12:29:07.119Z,81.17
2022-10-14T12:32:30.632Z,81.64
2022-10-14T12:35:52.846Z,82.18
2022-10-14T12:39:17.070Z,82.41
2022-10-14T12:42:22.254Z,82.55
2022-10-14T12:45:26.730Z,83.22
2022-10-14T12:48:34.839Z,83.14
2022-10-14T12:51:36.630Z,83.20
2022-10-14T12:54:48.463Z,83.74
2022-10-14T12:57:56.494Z,83.85
2022-10-14T13:01:17.811Z,85.33
2022-10-14T13:04:20.656Z,86.20
2022-10-14T13:07:48.735Z,87.35
2022-10-14T13:10:59.554Z,89.67
2022-10-14T13:14:02.182Z,90.16
2022-10-14T13:17:24.207Z,90.87
2022-10-14T13:20:34.887Z,92.25
2022-10-14T13:23:53.239Z,93.60
2022-10-14T13:26:54.918Z,93.93
2022-10-14T13:30:21.286Z,95.69
2022-10-14T13:33:32.614Z,95.46
2022-10-14T13:36:42.386Z,95.08
2022-10-14T13:39:44.091Z,95.60
2022-10-14T13:42:56.673Z,96.18
2022-10-14T13:46:28.902Z,95.05
2022-10-14T13:49:36.895Z,94.84
2022-10-14T13:52:39.786Z,95.07
2022-10-14T13:55:51.562Z,96.08
2022-10-14T13:58:56.289Z,95.69
2022-10-14T14:02:02.869Z,96.74
2022-10-14T14:05:05.406Z,97.43
2022-10-14T14:08:36.849Z,97.08
2022-10-14T14:11:33.547Z,97.79
2022-10-14T14:14:40.911Z,97.58
2022-10-14T14:17:43.618Z,98.20
2022-10-14T14:20:58.095Z,97.99
2022-10-14T14:24:01.321Z,98.74
2022-10-14T14:27:03.246Z,98.74
2022-10-14T14:30:25.702Z,98.62
2022-10-14T14:33:34.032Z,99.98
2022-10-14T14:36:50.765Z,100.00
2022-10-14T14:40:03.732Z,100.00
2022-10-14T14:43:09.580Z,100.00
2022-10-14T14:46:20.033Z,100.00
2022-10-14T14:49:27.231Z,100.00
2022-10-14T14:52:29.314Z,100.00
2022-10-14T14:55:38.072Z,100.00
2022-10-14T14:58:52.928Z,100.00
2022-10-14T15:05:06.255Z,98.73
2022-10-14T15:08:24.106Z,99.03
2022-10-14T15:11:26.345Z,98.95
2022-10-14T15:14:34.218Z,98.90
2022-10-14T15:17:45.542Z,99.76
2022-10-14T15:20:49.472Z,97.64
2022-10-14T15:23:52.834Z,95.72
2022-10-14T15:26:54.471Z,95.05
2022-10-14T15:30:18.847Z,98.11
2022-10-14T15:33:22.680Z,98.08
2022-10-14T15:36:28.053Z,99.06
2022-10-14T15:39:29.838Z,100.00
2022-10-14T15:42:31.479Z,100.00
2022-10-14T15:45:33.236Z,100.00
2022-10-14T15:48:36.481Z,100.00
2022-10-14T15:51:38.125Z,100.00
2022-10-14T15:54:42.425Z,99.58
2022-10-14T15:57:47.757Z,99.90
2022-10-14T16:00:49.692Z,99.98
2022-10-14T16:03:52.356Z,99.04
2022-10-14T16:06:56.237Z,98.77
2022-10-14T16:09:58.003Z,97.50
2022-10-14T16:12:59.690Z,98.07
2022-10-14T16:16:05.386Z,98.96
2022-10-14T16:19:07.071Z,99.21
2022-10-14T16:22:09.402Z,99.22
2022-10-14T16:25:34.695Z,99.77
2022-10-14T16:28:36.580Z,100.00
2022-10-14T16:31:38.325Z,100.00
2022-10-14T16:34:40.131Z,100.00
2022-10-14T16:37:41.886Z,98.63
2022-10-14T16:40:44.161Z,98.33
2022-10-14T16:43:48.248Z,98.29
2022-10-14T16:47:12.373Z,94.28
2022-10-14T16:50:14.072Z,96.40
2022-10-14T16:53:34.909Z,96.18
2022-10-14T16:56:55.005Z,96.69
2022-10-14T16:59:56.672Z,96.80
2022-10-14T17:02:58.350Z,97.62
2022-10-14T17:05:59.986Z,96.32
2022-10-14T17:09:01.675Z,96.62
2022-10-14T17:12:08.109Z,96.77
2022-10-14T17:15:13.016Z,98.04
2022-10-14T17:18:17.737Z,98.45
2022-10-14T17:21:20.940Z,96.63
2022-10-14T17:24:23.238Z,95.85
2022-10-14T17:27:24.859Z,95.34
2022-10-14T17:30:27.236Z,95.81
2022-10-14T17:33:29.708Z,96.52
2022-10-14T17:36:31.613Z,96.34
2022-10-14T17:39:33.269Z,96.06
2022-10-14T17:42:35.141Z,96.90
2022-10-14T17:45:38.573Z,98.37
2022-10-14T17:48:42.507Z,99.68
2022-10-14T17:51:44.954Z,99.92
2022-10-14T17:54:46.671Z,100.00
2022-10-14T17:57:48.330Z,99.03
2022-10-14T18:00:50.024Z,99.32
2022-10-14T18:03:51.961Z,99.90
2022-10-14T18:06:54.414Z,100.00
2022-10-14T18:09:56.134Z,99.67
2022-10-14T18:12:58.596Z,99.25
2022-10-14T18:16:06.435Z,100.00
2022-10-14T18:19:10.921Z,98.87
2022-10-14T18:22:12.789Z,100.00
2022-10-14T18:25:17.669Z,98.84
2022-10-14T18:28:19.716Z,96.89
2022-10-14T18:31:34.789Z,97.56
2022-10-14T18:34:36.502Z,98.76
2022-10-14T18:37:40.703Z,99.28
2022-10-14T18:40:42.396Z,99.33
2022-10-14T18:43:44.071Z,100.00
2022-10-14T18:46:47.570Z,99.53
2022-10-14T18:49:51.033Z,100.00
2022-10-14T18:52:52.849Z,99.82
2022-10-14T18:55:58.009Z,99.92
2022-10-14T19:02:14.514Z,100.00
2022-10-14T19:05:16.702Z,100.00
2022-10-14T19:08:18.874Z,100.00
2022-10-14T19:11:23.092Z,100.00
2022-10-14T19:14:25.092Z,100.00
2022-10-14T19:17:26.722Z,100.00
2022-10-14T19:20:35.835Z,100.00
2022-10-14T19:23:39.629Z,100.00
2022-10-14T19:26:45.328Z,100.00
2022-10-14T19:29:46.915Z,100.00
2022-10-14T19:32:48.583Z,100.00
2022-10-14T19:36:08.329Z,100.00
2022-10-14T19:39:13.316Z,100.00
2022-10-14T19:42:19.235Z,100.00
2022-10-14T19:45:22.499Z,100.00
2022-10-14T19:48:28.687Z,100.00
2022-10-14T19:55:26.300Z,100.00
2022-10-14T19:58:28.482Z,100.00
2022-10-14T20:01:33.233Z,100.00
2022-10-14T20:04:35.053Z,100.00
2022-10-14T20:07:36.687Z,100.00
2022-10-14T20:10:38.381Z,100.00
2022-10-14T20:13:40.679Z,100.00
2022-10-14T20:16:42.319Z,100.00
2022-10-14T20:19:44.455Z,100.00
2022-10-14T20:22:46.370Z,100.00
2022-10-14T20:25:48.014Z,100.00
2022-10-14T20:28:54.702Z,100.00
2022-10-14T20:31:56.958Z,100.00
2022-10-14T20:34:58.629Z,100.00
2022-10-14T20:38:00.390Z,100.00
2022-10-14T20:41:14.462Z,100.00
2022-10-14T20:44:19.182Z,100.00
2022-10-14T20:47:24.922Z,100.00
2022-10-14T20:50:26.757Z,100.00
2022-10-14T20:53:28.915Z,100.00
2022-10-14T20:56:31.615Z,100.00
2022-10-14T20:59:33.360Z,100.00
2022-10-14T21:02:35.128Z,100.00
2022-10-14T21:05:37.737Z,100.00
2022-10-14T21:08:39.867Z,100.00
2022-10-14T21:11:43.803Z,100.00
2022-10-14T21:14:51.500Z,100.00
2022-10-14T21:18:02.631Z,100.00
2022-10-14T21:21:06.626Z,100.00
2022-10-14T21:24:11.754Z,100.00
2022-10-14T21:27:13.392Z,100.00
2022-10-14T21:30:15.125Z,100.00
2022-10-14T21:33:26.646Z,100.00
2022-10-14T21:36:28.387Z,100.00
2022-10-14T21:39:29.936Z,100.00
2022-10-14T21:42:31.521Z,100.00
2022-10-14T21:45:33.824Z,100.00
2022-10-14T21:48:35.569Z,100.00
2022-10-14T21:51:37.944Z,100.00
2022-10-14T21:54:39.625Z,100.00
2022-10-14T21:57:41.419Z,100.00
2022-10-14T22:00:43.022Z,100.00
2022-10-14T22:03:45.156Z,100.00
2022-10-14T22:06:46.807Z,100.00
2022-10-14T22:09:48.418Z,100.00
2022-10-14T22:12:50.025Z,100.00
2022-10-14T22:15:52.494Z,100.00
2022-10-14T22:18:55.197Z,100.00
2022-10-14T22:21:59.135Z,100.00
2022-10-14T22:25:01.384Z,100.00
2022-10-14T22:28:04.089Z,100.00
2022-10-14T22:31:25.438Z,100.00
2022-10-14T22:34:30.654Z,100.00
2022-10-14T22:37:32.365Z,100.00
2022-10-14T22:40:41.096Z,100.00
2022-10-14T22:47:37.490Z,100.00
2022-10-14T22:50:42.490Z,100.00
2022-10-14T22:53:45.877Z,100.00
2022-10-14T22:56:47.932Z,100.00
2022-10-14T22:59:49.602Z,100.00
2022-10-14T23:02:51.555Z,100.00
2022-10-14T23:05:53.449Z,100.00
2022-10-14T23:08:55.230Z,100.00
2022-10-14T23:11:56.918Z,100.00
2022-10-14T23:14:58.600Z,100.00
2022-10-14T23:18:00.618Z,100.00
2022-10-14T23:21:14.081Z,100.00
2022-10-14T23:24:15.735Z,100.00
2022-10-14T23:27:17.395Z,100.00
2022-10-14T23:30:20.899Z,100.00
2022-10-14T23:33:22.695Z,100.00
2022-10-14T23:36:25.436Z,100.00
2022-10-14T23:39:27.127Z,100.00
2022-10-14T23:42:28.873Z,100.00
2022-10-14T23:45:41.830Z,100.00
2022-10-14T23:48:51.370Z,100.00
2022-10-14T23:52:02.754Z,100.00
2022-10-14T23:55:04.733Z,100.00
2022-10-14T23:58:06.403Z,100.00
